sensor_id;sensor_type;location;lat;lon;timestamp;pressure;altitude;pressure_sealevel;temperature;humidity
54453;BME280;40363;52.270;10.546;2023-07-20T00:02:25;75626.13;;;-147.06;73.11
54453;BME280;40363;52.270;10.546;2023-07-20T00:04:51;75617.91;;;-147.06;73.09
54453;BME280;40363;52.270;10.546;2023-07-20T00:07:18;75617.91;;;-147.06;73.10
54453;BME280;40363;52.270;10.546;2023-07-20T00:09:44;75619.97;;;-147.06;73.45
54453;BME280;40363;52.270;10.546;2023-07-20T00:12:11;75626.13;;;-147.06;73.62
54453;BME280;40363;52.270;10.546;2023-07-20T00:14:39;75617.91;;;-147.06;73.51
54453;BME280;40363;52.270;10.546;2023-07-20T00:17:06;75624.06;;;-147.06;73.32
54453;BME280;40363;52.270;10.546;2023-07-20T00:19:32;75615.84;;;-147.06;73.64
54453;BME280;40363;52.270;10.546;2023-07-20T00:22:00;75609.69;;;-147.06;73.65
54453;BME280;40363;52.270;10.546;2023-07-20T00:24:27;75626.13;;;-147.06;74.01
54453;BME280;40363;52.270;10.546;2023-07-20T00:26:53;75619.97;;;-147.06;74.18
54453;BME280;40363;52.270;10.546;2023-07-20T00:29:20;75630.25;;;-147.06;74.80
54453;BME280;40363;52.270;10.546;2023-07-20T00:31:47;75630.25;;;-147.06;75.19
54453;BME280;40363;52.270;10.546;2023-07-20T00:34:14;75638.47;;;-147.06;75.37
54453;BME280;40363;52.270;10.546;2023-07-20T00:36:41;75650.78;;;-147.06;75.91
54453;BME280;40363;52.270;10.546;2023-07-20T00:39:08;75656.94;;;-147.06;76.23
54453;BME280;40363;52.270;10.546;2023-07-20T00:41:34;75671.34;;;-147.06;77.08
54453;BME280;40363;52.270;10.546;2023-07-20T00:44:01;75663.13;;;-147.06;77.20
54453;BME280;40363;52.270;10.546;2023-07-20T00:46:27;75654.91;;;-147.06;77.01
54453;BME280;40363;52.270;10.546;2023-07-20T00:48:56;75677.50;;;-147.06;77.58
54453;BME280;40363;52.270;10.546;2023-07-20T00:51:23;75669.28;;;-147.06;77.80
54453;BME280;40363;52.270;10.546;2023-07-20T00:53:49;75681.63;;;-147.06;77.78
54453;BME280;40363;52.270;10.546;2023-07-20T00:56:16;75687.78;;;-147.06;78.59
54453;BME280;40363;52.270;10.546;2023-07-20T00:58:43;75691.88;;;-147.06;78.83
54453;BME280;40363;52.270;10.546;2023-07-20T01:01:10;75689.84;;;-147.06;78.78
54453;BME280;40363;52.270;10.546;2023-07-20T01:03:37;75698.06;;;-147.06;79.09
54453;BME280;40363;52.270;10.546;2023-07-20T01:06:13;75716.53;;;-147.06;79.60
54453;BME280;40363;52.270;10.546;2023-07-20T01:08:47;75714.50;;;-147.06;80.00
54453;BME280;40363;52.270;10.546;2023-07-20T01:11:23;75712.44;;;-147.06;80.06
54453;BME280;40363;52.270;10.546;2023-07-20T01:13:55;75708.31;;;-147.06;79.84
54453;BME280;40363;52.270;10.546;2023-07-20T01:16:21;75712.44;;;-147.06;79.78
54453;BME280;40363;52.270;10.546;2023-07-20T01:18:48;75700.09;;;-147.06;79.58
54453;BME280;40363;52.270;10.546;2023-07-20T01:21:26;75720.66;;;-147.06;80.40
54453;BME280;40363;52.270;10.546;2023-07-20T01:24:10;75720.66;;;-147.06;80.68
54453;BME280;40363;52.270;10.546;2023-07-20T01:27:00;75733.00;;;-147.06;80.94
54453;BME280;40363;52.270;10.546;2023-07-20T01:29:49;75737.09;;;-147.06;81.42
54453;BME280;40363;52.270;10.546;2023-07-20T01:32:23;75733.00;;;-147.06;81.60
54453;BME280;40363;52.270;10.546;2023-07-20T01:34:52;75739.16;;;-147.06;81.80
54453;BME280;40363;52.270;10.546;2023-07-20T01:37:21;75743.25;;;-147.06;82.15
54453;BME280;40363;52.270;10.546;2023-07-20T01:39:51;75749.44;;;-147.06;82.47
54453;BME280;40363;52.270;10.546;2023-07-20T01:42:21;75747.38;;;-147.06;82.37
54453;BME280;40363;52.270;10.546;2023-07-20T01:44:48;75757.66;;;-147.06;82.79
54453;BME280;40363;52.270;10.546;2023-07-20T01:47:16;75757.66;;;-147.06;82.42
54453;BME280;40363;52.270;10.546;2023-07-20T01:49:44;75761.75;;;-147.06;82.87
54453;BME280;40363;52.270;10.546;2023-07-20T01:52:11;75761.75;;;-147.06;82.97
54453;BME280;40363;52.270;10.546;2023-07-20T01:54:37;75753.53;;;-147.06;82.63
54453;BME280;40363;52.270;10.546;2023-07-20T01:57:04;75757.66;;;-147.06;82.67
54453;BME280;40363;52.270;10.546;2023-07-20T01:59:31;75761.75;;;-147.06;83.03
54453;BME280;40363;52.270;10.546;2023-07-20T02:01:57;75757.66;;;-147.06;83.10
54453;BME280;40363;52.270;10.546;2023-07-20T02:04:24;75753.53;;;-147.06;82.85
54453;BME280;40363;52.270;10.546;2023-07-20T02:06:52;75745.31;;;-147.06;82.62
54453;BME280;40363;52.270;10.546;2023-07-20T02:09:18;75757.66;;;-147.06;83.02
54453;BME280;40363;52.270;10.546;2023-07-20T02:11:45;75755.59;;;-147.06;82.97
54453;BME280;40363;52.270;10.546;2023-07-20T02:14:12;75755.59;;;-147.06;82.89
54453;BME280;40363;52.270;10.546;2023-07-20T02:16:38;75743.25;;;-147.06;82.73
54453;BME280;40363;52.270;10.546;2023-07-20T02:19:05;75741.22;;;-147.06;82.52
54453;BME280;40363;52.270;10.546;2023-07-20T02:21:32;75745.31;;;-147.06;81.72
54453;BME280;40363;52.270;10.546;2023-07-20T02:24:00;75747.38;;;-147.06;81.38
54453;BME280;40363;52.270;10.546;2023-07-20T02:26:26;75761.75;;;-147.06;82.30
54453;BME280;40363;52.270;10.546;2023-07-20T02:28:53;75769.97;;;-147.06;82.37
54453;BME280;40363;52.270;10.546;2023-07-20T02:31:20;75765.88;;;-147.06;82.30
54453;BME280;40363;52.270;10.546;2023-07-20T02:33:46;75778.19;;;-147.06;82.48
54453;BME280;40363;52.270;10.546;2023-07-20T02:36:13;75774.09;;;-147.06;82.39
54453;BME280;40363;52.270;10.546;2023-07-20T02:38:39;75767.91;;;-147.06;82.51
54453;BME280;40363;52.270;10.546;2023-07-20T02:41:07;75761.75;;;-147.06;82.44
54453;BME280;40363;52.270;10.546;2023-07-20T02:43:33;75774.09;;;-147.06;82.54
54453;BME280;40363;52.270;10.546;2023-07-20T02:46:00;75774.09;;;-147.06;82.62
54453;BME280;40363;52.270;10.546;2023-07-20T02:48:27;75780.25;;;-147.06;82.72
54453;BME280;40363;52.270;10.546;2023-07-20T02:50:53;75774.09;;;-147.06;82.95
54453;BME280;40363;52.270;10.546;2023-07-20T02:53:20;75765.88;;;-147.06;82.79
54453;BME280;40363;52.270;10.546;2023-07-20T02:55:46;75765.88;;;-147.06;82.54
54453;BME280;40363;52.270;10.546;2023-07-20T02:58:14;75765.88;;;-147.06;83.07
54453;BME280;40363;52.270;10.546;2023-07-20T03:00:42;75753.53;;;-147.06;82.83
54453;BME280;40363;52.270;10.546;2023-07-20T03:03:09;75757.66;;;-147.06;82.49
54453;BME280;40363;52.270;10.546;2023-07-20T03:05:35;75767.91;;;-147.06;82.72
54453;BME280;40363;52.270;10.546;2023-07-20T03:08:05;75769.97;;;-147.06;82.69
54453;BME280;40363;52.270;10.546;2023-07-20T03:10:31;75769.97;;;-147.06;82.46
54453;BME280;40363;52.270;10.546;2023-07-20T03:12:58;75769.97;;;-147.06;82.86
54453;BME280;40363;52.270;10.546;2023-07-20T03:15:26;75784.38;;;-147.06;82.87
54453;BME280;40363;52.270;10.546;2023-07-20T03:17:52;75788.47;;;-147.06;83.30
54453;BME280;40363;52.270;10.546;2023-07-20T03:20:19;75792.59;;;-147.06;83.12
54453;BME280;40363;52.270;10.546;2023-07-20T03:22:45;75790.53;;;-147.06;82.86
54453;BME280;40363;52.270;10.546;2023-07-20T03:25:12;75782.31;;;-147.06;82.87
54453;BME280;40363;52.270;10.546;2023-07-20T03:27:39;75790.53;;;-147.06;82.69
54453;BME280;40363;52.270;10.546;2023-07-20T03:30:07;75784.38;;;-147.06;82.65
54453;BME280;40363;52.270;10.546;2023-07-20T03:32:36;75782.31;;;-147.06;82.31
54453;BME280;40363;52.270;10.546;2023-07-20T03:35:03;75782.31;;;-147.06;82.60
54453;BME280;40363;52.270;10.546;2023-07-20T03:37:30;75782.31;;;-147.06;82.49
54453;BME280;40363;52.270;10.546;2023-07-20T03:39:56;75774.09;;;-147.06;82.07
54453;BME280;40363;52.270;10.546;2023-07-20T03:42:23;75780.25;;;-147.06;81.54
54453;BME280;40363;52.270;10.546;2023-07-20T03:44:49;75778.19;;;-147.06;81.15
54453;BME280;40363;52.270;10.546;2023-07-20T03:47:16;75792.59;;;-147.06;81.09
54453;BME280;40363;52.270;10.546;2023-07-20T03:49:44;75786.41;;;-147.06;81.52
54453;BME280;40363;52.270;10.546;2023-07-20T03:52:11;75784.38;;;-147.06;80.75
54453;BME280;40363;52.270;10.546;2023-07-20T03:54:37;75778.19;;;-147.06;81.12
54453;BME280;40363;52.270;10.546;2023-07-20T03:57:04;75782.31;;;-147.06;80.91
54453;BME280;40363;52.270;10.546;2023-07-20T03:59:31;75784.38;;;-147.06;80.67
54453;BME280;40363;52.270;10.546;2023-07-20T04:01:58;75774.09;;;-147.06;80.28
54453;BME280;40363;52.270;10.546;2023-07-20T04:04:25;75778.19;;;-147.06;79.89
54453;BME280;40363;52.270;10.546;2023-07-20T04:06:53;75774.09;;;-147.06;80.45
54453;BME280;40363;52.270;10.546;2023-07-20T04:09:20;75769.97;;;-147.06;80.03
54453;BME280;40363;52.270;10.546;2023-07-20T04:11:46;75774.09;;;-147.06;79.71
54453;BME280;40363;52.270;10.546;2023-07-20T04:14:13;75767.91;;;-147.06;79.71
54453;BME280;40363;52.270;10.546;2023-07-20T04:16:39;75761.75;;;-147.06;79.74
54453;BME280;40363;52.270;10.546;2023-07-20T04:19:06;75776.13;;;-147.06;80.12
54453;BME280;40363;52.270;10.546;2023-07-20T04:21:39;75776.13;;;-147.06;80.48
54453;BME280;40363;52.270;10.546;2023-07-20T04:24:07;75769.97;;;-147.06;80.14
54453;BME280;40363;52.270;10.546;2023-07-20T04:26:34;75774.09;;;-147.06;80.68
54453;BME280;40363;52.270;10.546;2023-07-20T04:29:01;75761.75;;;-147.06;80.89
54453;BME280;40363;52.270;10.546;2023-07-20T04:31:28;75761.75;;;-147.06;80.84
54453;BME280;40363;52.270;10.546;2023-07-20T04:33:57;75769.97;;;-147.06;80.99
54453;BME280;40363;52.270;10.546;2023-07-20T04:36:24;75780.25;;;-147.06;81.73
54453;BME280;40363;52.270;10.546;2023-07-20T04:38:50;75745.31;;;-147.06;80.66
54453;BME280;40363;52.270;10.546;2023-07-20T04:41:18;75753.53;;;-147.06;80.20
54453;BME280;40363;52.270;10.546;2023-07-20T04:43:47;75747.38;;;-147.06;79.58
54453;BME280;40363;52.270;10.546;2023-07-20T04:46:13;75759.69;;;-147.06;79.50
54453;BME280;40363;52.270;10.546;2023-07-20T04:48:40;75735.03;;;-147.06;79.12
54453;BME280;40363;52.270;10.546;2023-07-20T04:51:06;75704.22;;;-147.06;78.07
54453;BME280;40363;52.270;10.546;2023-07-20T04:53:33;75696.00;;;-147.06;77.78
54453;BME280;40363;52.270;10.546;2023-07-20T04:56:00;75679.56;;;-147.06;76.47
54453;BME280;40363;52.270;10.546;2023-07-20T04:58:27;75685.72;;;-147.06;76.50
54453;BME280;40363;52.270;10.546;2023-07-20T05:00:54;75659.00;;;-147.06;76.17
54453;BME280;40363;52.270;10.546;2023-07-20T05:03:21;75648.72;;;-147.06;75.60
54453;BME280;40363;52.270;10.546;2023-07-20T05:05:47;75654.91;;;-147.06;75.38
54453;BME280;40363;52.270;10.546;2023-07-20T05:08:14;75659.00;;;-147.06;75.47
54453;BME280;40363;52.270;10.546;2023-07-20T05:10:41;75675.44;;;-147.06;75.40
54453;BME280;40363;52.270;10.546;2023-07-20T05:13:07;75691.88;;;-147.06;76.06
54453;BME280;40363;52.270;10.546;2023-07-20T05:15:35;75675.44;;;-147.06;75.64
54453;BME280;40363;52.270;10.546;2023-07-20T05:18:02;75681.63;;;-147.06;76.05
54453;BME280;40363;52.270;10.546;2023-07-20T05:20:29;75675.44;;;-147.06;76.27
54453;BME280;40363;52.270;10.546;2023-07-20T05:22:56;75677.50;;;-147.06;75.93
54453;BME280;40363;52.270;10.546;2023-07-20T05:25:23;75663.13;;;-147.06;75.55
54453;BME280;40363;52.270;10.546;2023-07-20T05:27:50;75665.16;;;-147.06;75.01
54453;BME280;40363;52.270;10.546;2023-07-20T05:30:16;75663.13;;;-147.06;75.36
54453;BME280;40363;52.270;10.546;2023-07-20T05:32:45;75683.66;;;-147.06;75.33
54453;BME280;40363;52.270;10.546;2023-07-20T05:35:16;75691.88;;;-147.06;75.66
54453;BME280;40363;52.270;10.546;2023-07-20T05:37:43;75696.00;;;-147.06;76.40
54453;BME280;40363;52.270;10.546;2023-07-20T05:40:10;75691.88;;;-147.06;76.47
54453;BME280;40363;52.270;10.546;2023-07-20T05:42:37;75700.09;;;-147.06;77.83
54453;BME280;40363;52.270;10.546;2023-07-20T05:45:05;75712.44;;;-147.06;79.43
54453;BME280;40363;52.270;10.546;2023-07-20T05:47:31;75722.72;;;-147.06;81.75
54453;BME280;40363;52.270;10.546;2023-07-20T05:49:59;75733.00;;;-147.06;83.00
54453;BME280;40363;52.270;10.546;2023-07-20T05:52:26;75735.03;;;-147.06;84.00
54453;BME280;40363;52.270;10.546;2023-07-20T05:54:52;75741.22;;;-147.06;84.75
54453;BME280;40363;52.270;10.546;2023-07-20T05:57:19;75741.22;;;-147.06;85.33
54453;BME280;40363;52.270;10.546;2023-07-20T05:59:46;75757.66;;;-147.06;85.92
54453;BME280;40363;52.270;10.546;2023-07-20T06:02:12;75737.09;;;-147.06;85.76
54453;BME280;40363;52.270;10.546;2023-07-20T06:04:39;75739.16;;;-147.06;87.05
54453;BME280;40363;52.270;10.546;2023-07-20T06:07:07;75741.22;;;-147.06;86.51
54453;BME280;40363;52.270;10.546;2023-07-20T06:09:34;75745.31;;;-147.06;86.22
54453;BME280;40363;52.270;10.546;2023-07-20T06:12:01;75755.59;;;-147.06;87.52
54453;BME280;40363;52.270;10.546;2023-07-20T06:14:27;75730.94;;;-147.06;87.04
54453;BME280;40363;52.270;10.546;2023-07-20T06:16:54;75728.88;;;-147.06;86.03
54453;BME280;40363;52.270;10.546;2023-07-20T06:19:20;75720.66;;;-147.06;86.59
54453;BME280;40363;52.270;10.546;2023-07-20T06:21:47;75712.44;;;-147.06;87.37
54453;BME280;40363;52.270;10.546;2023-07-20T06:24:16;75720.66;;;-147.06;87.25
54453;BME280;40363;52.270;10.546;2023-07-20T06:26:43;75745.31;;;-147.06;84.69
54453;BME280;40363;52.270;10.546;2023-07-20T06:29:09;75726.81;;;-147.06;84.78
54453;BME280;40363;52.270;10.546;2023-07-20T06:31:36;75718.59;;;-147.06;83.81
54453;BME280;40363;52.270;10.546;2023-07-20T06:34:03;75733.00;;;-147.06;84.66
54453;BME280;40363;52.270;10.546;2023-07-20T06:36:29;75737.09;;;-147.06;83.70
54453;BME280;40363;52.270;10.546;2023-07-20T06:38:56;75765.88;;;-147.06;84.04
54453;BME280;40363;52.270;10.546;2023-07-20T06:41:24;75796.69;;;-147.06;84.79
54453;BME280;40363;52.270;10.546;2023-07-20T06:43:50;75813.13;;;-147.06;85.79
54453;BME280;40363;52.270;10.546;2023-07-20T06:46:17;75811.06;;;-147.06;87.79
54453;BME280;40363;52.270;10.546;2023-07-20T06:48:44;75817.25;;;-147.06;87.79
54453;BME280;40363;52.270;10.546;2023-07-20T06:51:10;75819.28;;;-147.06;87.04
54453;BME280;40363;52.270;10.546;2023-07-20T06:53:37;75811.06;;;-147.06;85.98
54453;BME280;40363;52.270;10.546;2023-07-20T06:56:04;75815.19;;;-147.06;86.36
54453;BME280;40363;52.270;10.546;2023-07-20T06:58:32;75819.28;;;-147.06;87.66
54453;BME280;40363;52.270;10.546;2023-07-20T07:00:59;75827.50;;;-147.06;88.29
54453;BME280;40363;52.270;10.546;2023-07-20T07:03:25;75848.06;;;-147.06;90.19
54453;BME280;40363;52.270;10.546;2023-07-20T07:05:55;75846.00;;;-147.06;91.76
54453;BME280;40363;52.270;10.546;2023-07-20T07:08:21;75846.00;;;-147.06;91.70
54453;BME280;40363;52.270;10.546;2023-07-20T07:10:48;75848.06;;;-147.06;91.68
54453;BME280;40363;52.270;10.546;2023-07-20T07:13:14;75846.00;;;-147.06;91.98
54453;BME280;40363;52.270;10.546;2023-07-20T07:15:42;75823.41;;;-147.06;91.80
54453;BME280;40363;52.270;10.546;2023-07-20T07:18:09;75811.06;;;-147.06;91.90
54453;BME280;40363;52.270;10.546;2023-07-20T07:20:35;75782.31;;;-147.06;91.13
54453;BME280;40363;52.270;10.546;2023-07-20T07:23:02;75796.69;;;-147.06;89.99
54453;BME280;40363;52.270;10.546;2023-07-20T07:25:28;75798.75;;;-147.06;90.90
54453;BME280;40363;52.270;10.546;2023-07-20T07:27:55;75813.13;;;-147.06;90.94
54453;BME280;40363;52.270;10.546;2023-07-20T07:30:22;75829.56;;;-147.06;90.82
54453;BME280;40363;52.270;10.546;2023-07-20T07:32:49;75841.91;;;-147.06;91.96
54453;BME280;40363;52.270;10.546;2023-07-20T07:35:16;75852.19;;;-147.06;92.62
54453;BME280;40363;52.270;10.546;2023-07-20T07:37:42;75852.19;;;-147.06;93.95
54453;BME280;40363;52.270;10.546;2023-07-20T07:40:11;75860.41;;;-147.06;94.75
54453;BME280;40363;52.270;10.546;2023-07-20T07:42:38;75876.84;;;-147.06;93.77
54453;BME280;40363;52.270;10.546;2023-07-20T07:45:06;75862.44;;;-147.06;93.33
54453;BME280;40363;52.270;10.546;2023-07-20T07:47:32;75864.50;;;-147.06;92.81
54453;BME280;40363;52.270;10.546;2023-07-20T07:50:00;75864.50;;;-147.06;92.91
54453;BME280;40363;52.270;10.546;2023-07-20T07:52:27;75841.91;;;-147.06;91.80
54453;BME280;40363;52.270;10.546;2023-07-20T07:54:53;75829.56;;;-147.06;91.32
54453;BME280;40363;52.270;10.546;2023-07-20T07:57:20;75790.53;;;-147.06;90.33
54453;BME280;40363;52.270;10.546;2023-07-20T07:59:47;75769.97;;;-147.06;87.36
54453;BME280;40363;52.270;10.546;2023-07-20T08:02:13;75743.25;;;-147.06;86.12
54453;BME280;40363;52.270;10.546;2023-07-20T08:04:40;75724.75;;;-147.06;84.55
54453;BME280;40363;52.270;10.546;2023-07-20T08:07:08;75671.34;;;-147.06;84.37
54453;BME280;40363;52.270;10.546;2023-07-20T08:09:35;75601.47;;;-147.06;80.40
54453;BME280;40363;52.270;10.546;2023-07-20T08:12:01;75560.38;;;-147.06;78.53
54453;BME280;40363;52.270;10.546;2023-07-20T08:14:29;75515.16;;;-147.06;75.88
54453;BME280;40363;52.270;10.546;2023-07-20T08:16:55;75432.97;;;-147.06;75.03
54453;BME280;40363;52.270;10.546;2023-07-20T08:19:23;75309.69;;;-147.06;70.64
54453;BME280;40363;52.270;10.546;2023-07-20T08:21:50;75393.94;;;-147.06;71.66
54453;BME280;40363;52.270;10.546;2023-07-20T08:24:18;75441.19;;;-147.06;71.96
54453;BME280;40363;52.270;10.546;2023-07-20T08:26:45;75412.41;;;-147.06;71.36
54453;BME280;40363;52.270;10.546;2023-07-20T08:29:11;75486.41;;;-147.06;72.78
54453;BME280;40363;52.270;10.546;2023-07-20T08:31:38;75506.94;;;-147.06;74.20
54453;BME280;40363;52.270;10.546;2023-07-20T08:34:04;75248.03;;;-147.06;66.26
54453;BME280;40363;52.270;10.546;2023-07-20T08:36:31;75289.13;;;-147.06;66.80
54453;BME280;40363;52.270;10.546;2023-07-20T08:38:57;75239.81;;;-147.06;63.51
54453;BME280;40363;52.270;10.546;2023-07-20T08:41:28;75030.25;;;-147.06;59.27
54453;BME280;40363;52.270;10.546;2023-07-20T08:43:56;75100.09;;;-147.06;58.37
54453;BME280;40363;52.270;10.546;2023-07-20T08:46:26;75042.56;;;-147.06;56.18
54453;BME280;40363;52.270;10.546;2023-07-20T08:48:54;75198.72;;;-147.06;58.62
54453;BME280;40363;52.270;10.546;2023-07-20T08:51:21;75046.69;;;-147.06;56.44
54453;BME280;40363;52.270;10.546;2023-07-20T08:53:51;75202.84;;;-147.06;59.00
54453;BME280;40363;52.270;10.546;2023-07-20T08:56:19;75317.91;;;-147.06;62.93
54453;BME280;40363;52.270;10.546;2023-07-20T08:58:49;75297.34;;;-147.06;64.31
54453;BME280;40363;52.270;10.546;2023-07-20T09:01:17;75248.03;;;-147.06;60.73
54453;BME280;40363;52.270;10.546;2023-07-20T09:03:45;75059.00;;;-147.06;56.69
54453;BME280;40363;52.270;10.546;2023-07-20T09:06:12;75003.53;;;-147.06;54.76
54453;BME280;40363;52.270;10.546;2023-07-20T09:08:39;74976.81;;;-147.06;51.25
54453;BME280;40363;52.270;10.546;2023-07-20T09:11:05;75001.47;;;-147.06;51.37
54453;BME280;40363;52.270;10.546;2023-07-20T09:13:32;75009.69;;;-147.06;51.88
54453;BME280;40363;52.270;10.546;2023-07-20T09:16:00;75165.84;;;-147.06;55.63
54453;BME280;40363;52.270;10.546;2023-07-20T09:18:30;75237.75;;;-147.06;56.05
54453;BME280;40363;52.270;10.546;2023-07-20T09:21:01;75262.41;;;-147.06;56.10
54453;BME280;40363;52.270;10.546;2023-07-20T09:23:32;75276.81;;;-147.06;56.94
54453;BME280;40363;52.270;10.546;2023-07-20T09:26:09;75260.38;;;-147.06;55.62
54453;BME280;40363;52.270;10.546;2023-07-20T09:28:41;75135.03;;;-147.06;52.21
54453;BME280;40363;52.270;10.546;2023-07-20T09:31:16;75167.91;;;-147.06;52.47
54453;BME280;40363;52.270;10.546;2023-07-20T09:33:44;75022.03;;;-147.06;50.33
54453;BME280;40363;52.270;10.546;2023-07-20T09:36:10;75024.06;;;-147.06;49.57
54453;BME280;40363;52.270;10.546;2023-07-20T09:38:37;74913.13;;;-147.06;48.71
54453;BME280;40363;52.270;10.546;2023-07-20T09:41:05;74863.81;;;-147.06;46.21
54453;BME280;40363;52.270;10.546;2023-07-20T09:43:32;74828.91;;;-147.06;45.57
54453;BME280;40363;52.270;10.546;2023-07-20T09:46:02;74824.78;;;-147.06;41.91
54453;BME280;40363;52.270;10.546;2023-07-20T09:48:36;74759.03;;;-147.06;40.68
54453;BME280;40363;52.270;10.546;2023-07-20T09:51:03;74826.84;;;-147.06;40.86
54453;BME280;40363;52.270;10.546;2023-07-20T09:53:32;74828.91;;;-147.06;41.01
54453;BME280;40363;52.270;10.546;2023-07-20T09:55:59;74812.47;;;-147.06;42.56
54453;BME280;40363;52.270;10.546;2023-07-20T09:58:26;74818.63;;;-147.06;42.44
54453;BME280;40363;52.270;10.546;2023-07-20T10:00:57;74759.03;;;-147.06;41.42
54453;BME280;40363;52.270;10.546;2023-07-20T10:03:27;74915.19;;;-147.06;42.84
54453;BME280;40363;52.270;10.546;2023-07-20T10:05:57;74997.38;;;-147.06;43.84
54453;BME280;40363;52.270;10.546;2023-07-20T10:08:25;75067.22;;;-147.06;45.54
54453;BME280;40363;52.270;10.546;2023-07-20T10:10:52;75130.91;;;-147.06;45.87
54453;BME280;40363;52.270;10.546;2023-07-20T10:13:24;75235.72;;;-147.06;44.30
54453;BME280;40363;52.270;10.546;2023-07-20T10:15:54;75239.81;;;-147.06;45.02
54453;BME280;40363;52.270;10.546;2023-07-20T10:18:26;75262.41;;;-147.06;46.01
54453;BME280;40363;52.270;10.546;2023-07-20T10:20:56;75264.47;;;-147.06;46.19
54453;BME280;40363;52.270;10.546;2023-07-20T10:23:26;75260.38;;;-147.06;46.10
54453;BME280;40363;52.270;10.546;2023-07-20T10:25:55;75260.38;;;-147.06;45.91
54453;BME280;40363;52.270;10.546;2023-07-20T10:28:22;75264.47;;;-147.06;44.71
54453;BME280;40363;52.270;10.546;2023-07-20T10:30:50;75307.63;;;-147.06;46.28
54453;BME280;40363;52.270;10.546;2023-07-20T10:33:17;75317.91;;;-147.06;46.44
54453;BME280;40363;52.270;10.546;2023-07-20T10:35:51;75204.88;;;-147.06;44.96
54453;BME280;40363;52.270;10.546;2023-07-20T10:38:18;75104.22;;;-147.06;43.36
54453;BME280;40363;52.270;10.546;2023-07-20T10:40:54;75005.59;;;-147.06;40.88
54453;BME280;40363;52.270;10.546;2023-07-20T10:43:21;75013.81;;;-147.06;41.48
54453;BME280;40363;52.270;10.546;2023-07-20T10:45:50;75067.22;;;-147.06;41.88
54453;BME280;40363;52.270;10.546;2023-07-20T10:48:17;75120.66;;;-147.06;42.52
54453;BME280;40363;52.270;10.546;2023-07-20T10:50:45;75104.22;;;-147.06;42.47
54453;BME280;40363;52.270;10.546;2023-07-20T10:53:14;75083.66;;;-147.06;42.39
54453;BME280;40363;52.270;10.546;2023-07-20T10:55:42;75157.63;;;-147.06;42.48
54453;BME280;40363;52.270;10.546;2023-07-20T10:58:12;75182.28;;;-147.06;43.35
54453;BME280;40363;52.270;10.546;2023-07-20T11:00:58;75054.91;;;-147.06;41.18
54453;BME280;40363;52.270;10.546;2023-07-20T11:03:33;74976.81;;;-147.06;39.65
54453;BME280;40363;52.270;10.546;2023-07-20T11:06:29;74960.38;;;-147.06;38.96
54453;BME280;40363;52.270;10.546;2023-07-20T11:09:05;75013.81;;;-147.06;40.53
54453;BME280;40363;52.270;10.546;2023-07-20T11:11:35;75083.66;;;-147.06;40.18
54453;BME280;40363;52.270;10.546;2023-07-20T11:14:03;75112.44;;;-147.06;40.79
54453;BME280;40363;52.270;10.546;2023-07-20T11:16:34;75135.03;;;-147.06;41.08
54453;BME280;40363;52.270;10.546;2023-07-20T11:19:01;75151.47;;;-147.06;42.45
54453;BME280;40363;52.270;10.546;2023-07-20T11:21:28;75153.53;;;-147.06;42.68
54453;BME280;40363;52.270;10.546;2023-07-20T11:23:55;75172.00;;;-147.06;42.47
54453;BME280;40363;52.270;10.546;2023-07-20T11:26:22;75186.41;;;-147.06;42.90
54453;BME280;40363;52.270;10.546;2023-07-20T11:28:50;75186.41;;;-147.06;43.28
54453;BME280;40363;52.270;10.546;2023-07-20T11:31:17;75206.94;;;-147.06;43.24
54453;BME280;40363;52.270;10.546;2023-07-20T11:33:44;75219.28;;;-147.06;43.04
54453;BME280;40363;52.270;10.546;2023-07-20T11:36:11;75215.16;;;-147.06;43.55
54453;BME280;40363;52.270;10.546;2023-07-20T11:38:38;75217.22;;;-147.06;43.01
54453;BME280;40363;52.270;10.546;2023-07-20T11:41:05;75182.28;;;-147.06;43.26
54453;BME280;40363;52.270;10.546;2023-07-20T11:43:32;75172.00;;;-147.06;43.17
54453;BME280;40363;52.270;10.546;2023-07-20T11:46:00;75135.03;;;-147.06;42.12
54453;BME280;40363;52.270;10.546;2023-07-20T11:48:27;75130.91;;;-147.06;41.76
54453;BME280;40363;52.270;10.546;2023-07-20T11:50:53;75137.09;;;-147.06;42.10
54453;BME280;40363;52.270;10.546;2023-07-20T11:53:20;75149.41;;;-147.06;42.04
54453;BME280;40363;52.270;10.546;2023-07-20T11:55:47;75172.00;;;-147.06;43.23
54453;BME280;40363;52.270;10.546;2023-07-20T11:58:13;75206.94;;;-147.06;42.95
54453;BME280;40363;52.270;10.546;2023-07-20T12:00:44;75227.50;;;-147.06;43.51
54453;BME280;40363;52.270;10.546;2023-07-20T12:03:12;75237.75;;;-147.06;44.40
54453;BME280;40363;52.270;10.546;2023-07-20T12:05:39;75248.03;;;-147.06;44.77
54453;BME280;40363;52.270;10.546;2023-07-20T12:08:06;75229.53;;;-147.06;44.02
54453;BME280;40363;52.270;10.546;2023-07-20T12:10:35;75209.00;;;-147.06;43.24
54453;BME280;40363;52.270;10.546;2023-07-20T12:13:09;75206.94;;;-147.06;43.41
54453;BME280;40363;52.270;10.546;2023-07-20T12:15:37;75206.94;;;-147.06;42.94
54453;BME280;40363;52.270;10.546;2023-07-20T12:18:05;75206.94;;;-147.06;43.37
54453;BME280;40363;52.270;10.546;2023-07-20T12:20:34;75204.88;;;-147.06;43.48
54453;BME280;40363;52.270;10.546;2023-07-20T12:23:02;75188.44;;;-147.06;43.81
54453;BME280;40363;52.270;10.546;2023-07-20T12:25:36;75157.63;;;-147.06;42.79
54453;BME280;40363;52.270;10.546;2023-07-20T12:28:04;75102.16;;;-147.06;42.27
54453;BME280;40363;52.270;10.546;2023-07-20T12:30:31;75091.88;;;-147.06;41.23
54453;BME280;40363;52.270;10.546;2023-07-20T12:32:58;75050.78;;;-147.06;41.02
54453;BME280;40363;52.270;10.546;2023-07-20T12:35:25;75017.91;;;-147.06;40.44